Time;durP1;ratioP1;P1;durP2;ratioP2;P2;SDS_P1;SDS_P2;PMS_P1;PMS_P2;Temp;Humidity;BMP_temperature;BMP_pressure;BME280_temperature;BME280_humidity;BME280_pressure;Samples;Min_cycle;Max_cycle;Signal;HPM_P1;HPM_P2
2023/05/05 00:02:14;;;;;;;16.20;11.02;;;;;;;11.34;100.00;101474.41;5052496;28;20033;-75
2023/05/05 00:04:39;;;;;;;14.88;10.80;;;;;;;11.92;100.00;101546.19;5053017;28;20116;-76
2023/05/05 00:07:04;;;;;;;18.63;11.68;;;;;;;11.43;100.00;101488.78;5052687;28;20618;-77
2023/05/05 00:09:30;;;;;;;16.58;11.60;;;;;;;12.09;100.00;101565.56;5053032;28;20102;-76
2023/05/05 00:11:55;;;;;;;17.85;12.02;;;;;;;11.68;100.00;101509.00;5053777;28;20036;-77
2023/05/05 00:14:21;;;;;;;19.95;11.98;;;;;;;11.65;100.00;101520.88;5053915;28;20029;-76
2023/05/05 00:16:46;;;;;;;21.58;11.90;;;;;;;11.70;100.00;101537.00;5052890;28;20029;-77
2023/05/05 00:19:11;;;;;;;17.60;11.57;;;;;;;11.70;100.00;101514.09;5053375;28;20091;-77
2023/05/05 00:21:37;;;;;;;19.27;11.57;;;;;;;11.53;100.00;101480.22;5052430;28;20123;-77
2023/05/05 00:24:02;;;;;;;17.40;11.73;;;;;;;11.98;100.00;101579.28;5053251;28;20031;-78
2023/05/05 00:26:28;;;;;;;18.30;11.77;;;;;;;11.54;100.00;101480.22;5053837;28;20033;-78
2023/05/05 00:28:53;;;;;;;20.33;11.73;;;;;;;11.31;100.00;101456.59;5053630;28;20075;-77
2023/05/05 00:31:19;;;;;;;17.27;11.88;;;;;;;11.79;100.00;101544.56;5053005;28;20064;-77
2023/05/05 00:33:44;;;;;;;16.40;10.70;;;;;;;11.97;100.00;101563.13;5052258;28;20033;-78
2023/05/05 00:36:10;;;;;;;13.38;9.43;;;;;;;11.77;100.00;101514.03;5053577;28;21061;-77
2023/05/05 00:38:35;;;;;;;14.88;9.32;;;;;;;11.48;100.00;101471.75;5052277;28;20063;-77
2023/05/05 00:41:01;;;;;;;12.70;8.57;;;;;;;12.00;100.00;101546.97;5052354;28;20029;-78
2023/05/05 00:43:26;;;;;;;11.38;7.82;;;;;;;12.35;100.00;101575.53;5053367;28;20036;-76
2023/05/05 00:46:00;;;;;;;9.18;7.00;;;;;;;12.44;100.00;101583.09;5053300;28;20033;-77
2023/05/05 00:48:29;;;;;;;8.48;6.18;;;;;;;12.53;100.00;101582.16;5053178;28;20535;-78
2023/05/05 00:50:54;;;;;;;8.98;6.15;;;;;;;12.48;100.00;101586.47;5051665;28;20029;-76
2023/05/05 00:53:20;;;;;;;7.10;5.40;;;;;;;11.98;100.00;101478.13;5052080;28;20043;-77
2023/05/05 00:55:45;;;;;;;8.23;5.63;;;;;;;12.43;100.00;101544.84;5052095;28;20484;-76
2023/05/05 00:58:12;;;;;;;7.15;5.88;;;;;;;12.22;100.00;101504.28;5052315;28;20420;-76
2023/05/05 01:00:37;;;;;;;8.88;6.72;;;;;;;12.05;100.00;101476.38;5053404;28;20414;-76
2023/05/05 01:03:04;;;;;;;12.55;9.00;;;;;;;11.58;100.00;101410.56;5052531;28;20063;-76
2023/05/05 01:05:51;;;;;;;13.70;10.32;;;;;;;11.98;100.00;101502.81;5051756;28;20029;-75
2023/05/05 01:08:49;;;;;;;15.50;10.93;;;;;;;11.52;100.00;101441.19;5068317;28;20163;-76
2023/05/05 01:11:30;;;;;;;15.77;10.45;;;;;;;11.97;100.00;101493.44;5052549;28;20021;-75
2023/05/05 01:14:00;;;;;;;13.30;9.90;;;;;;;11.91;100.00;101488.41;5051558;28;20065;-75
2023/05/05 01:16:29;;;;;;;15.85;10.10;;;;;;;11.63;100.00;101446.16;5051485;28;20044;-74
2023/05/05 01:19:15;;;;;;;13.07;9.55;;;;;;;11.81;100.00;101467.25;5052175;28;20072;-75
2023/05/05 01:21:47;;;;;;;12.45;8.50;;;;;;;11.77;100.00;101450.31;5067754;28;20029;-74
2023/05/05 01:24:33;;;;;;;11.18;7.55;;;;;;;11.94;100.00;101470.56;5051267;28;20147;-75
2023/05/05 01:27:15;;;;;;;10.80;7.25;;;;;;;12.23;100.00;101465.16;5051323;28;20041;-75
2023/05/05 01:30:18;;;;;;;8.23;6.20;;;;;;;12.41;100.00;101473.47;5068013;28;20033;-75
2023/05/05 01:32:56;;;;;;;6.40;5.50;;;;;;;12.17;100.00;101404.88;5076453;28;20174;-76
2023/05/05 01:35:28;;;;;;;7.72;5.45;;;;;;;12.61;100.00;101463.00;5071313;28;20020;-77
2023/05/05 01:38:21;;;;;;;7.30;4.78;;;;;;;12.68;100.00;101459.50;5072671;28;20032;-77
2023/05/05 01:40:52;;;;;;;5.47;4.45;;;;;;;12.40;100.00;101404.63;5070597;28;20028;-76
2023/05/05 01:43:22;;;;;;;7.60;5.10;;;;;;;12.30;100.00;101374.97;5070686;28;20033;-75
2023/05/05 01:45:48;;;;;;;6.00;4.82;;;;;;;12.63;100.00;101412.81;5072148;28;20099;-76
2023/05/05 01:48:19;;;;;;;5.85;4.93;;;;;;;12.33;100.00;101363.03;5072290;28;20568;-75
2023/05/05 01:50:47;;;;;;;7.37;5.30;;;;;;;12.13;100.00;101303.78;5076710;28;20043;-76
2023/05/05 01:53:16;;;;;;;7.43;4.60;;;;;;;12.60;100.00;101372.00;5071441;28;20032;-75
2023/05/05 01:55:42;;;;;;;5.93;4.70;;;;;;;12.36;100.00;101323.91;5071727;28;20554;-75
2023/05/05 01:58:09;;;;;;;5.50;4.15;;;;;;;12.22;100.00;101301.13;5070488;28;20025;-76
2023/05/05 02:00:35;;;;;;;5.20;4.50;;;;;;;12.59;100.00;101337.16;5070400;28;20033;-75
2023/05/05 02:03:03;;;;;;;7.47;4.55;;;;;;;12.60;100.00;101333.75;5071294;28;20039;-75
2023/05/05 02:05:30;;;;;;;5.97;4.63;;;;;;;12.12;100.00;101267.25;5070102;28;20045;-75
2023/05/05 02:07:58;;;;;;;4.82;4.03;;;;;;;12.06;100.00;101246.13;5071097;28;20028;-75
2023/05/05 02:10:25;;;;;;;4.80;4.25;;;;;;;11.84;100.00;101214.13;5066328;28;20032;-76
2023/05/05 02:12:52;;;;;;;5.25;4.00;;;;;;;12.47;100.00;101296.53;5073849;28;20032;-75
2023/05/05 02:15:20;;;;;;;5.68;3.92;;;;;;;12.31;100.00;101246.59;5091819;28;20036;-75
2023/05/05 02:17:51;;;;;;;5.32;4.28;;;;;;;12.69;100.00;101290.25;5091708;28;20083;-75
2023/05/05 02:20:17;;;;;;;4.97;4.10;;;;;;;12.66;100.00;101282.63;5091785;28;20028;-75
2023/05/05 02:22:42;;;;;;;6.05;3.70;;;;;;;12.61;100.00;101225.72;5091239;28;20039;-75
2023/05/05 02:25:09;;;;;;;4.47;4.07;;;;;;;12.80;100.00;101281.53;5090378;28;20751;-76
2023/05/05 02:27:36;;;;;;;7.63;4.43;;;;;;;12.36;100.00;101196.38;5089983;28;20062;-75
2023/05/05 02:30:05;;;;;;;5.05;4.57;;;;;;;12.89;100.00;101253.31;5090052;28;20032;-75
2023/05/05 02:32:35;;;;;;;4.75;4.10;;;;;;;12.48;100.00;101186.00;5071401;28;20119;-74
2023/05/05 02:35:08;;;;;;;6.38;4.13;;;;;;;12.43;100.00;101186.06;5070358;28;20719;-76
2023/05/05 02:37:35;;;;;;;4.28;3.85;;;;;;;12.49;100.00;101208.91;5070639;28;20094;-76
2023/05/05 02:40:04;;;;;;;4.65;4.10;;;;;;;12.59;100.00;101190.03;5071060;28;20032;-75
2023/05/05 02:42:36;;;;;;;4.30;3.90;;;;;;;12.32;100.00;101134.38;5069569;28;20123;-76
2023/05/05 02:45:08;;;;;;;4.97;3.88;;;;;;;12.37;100.00;101132.59;5070142;28;20039;-76
2023/05/05 02:47:35;;;;;;;4.50;3.83;;;;;;;12.67;100.00;101179.72;5051022;28;20044;-76
2023/05/05 02:50:01;;;;;;;5.85;4.18;;;;;;;12.26;100.00;101103.88;5049530;28;20039;-75
2023/05/05 02:52:26;;;;;;;5.30;4.05;;;;;;;12.27;100.00;101097.06;5051503;28;20112;-75
2023/05/05 02:54:52;;;;;;;4.20;3.80;;;;;;;12.60;100.00;101144.94;5051305;28;20044;-76
2023/05/05 02:57:24;;;;;;;4.55;3.97;;;;;;;11.98;100.00;101029.56;5050411;28;20066;-76
2023/05/05 03:00:00;;;;;;;5.00;3.72;;;;;;;12.41;100.00;101088.31;5049077;28;20032;-75
2023/05/05 03:02:39;;;;;;;6.18;4.38;;;;;;;12.06;100.00;101020.09;5050086;28;20032;-76
2023/05/05 03:05:09;;;;;;;4.80;4.32;;;;;;;12.73;100.00;101131.13;5049740;28;20029;-76
2023/05/05 03:07:46;;;;;;;6.30;4.57;;;;;;;12.22;100.00;101024.94;5050060;28;20037;-75
2023/05/05 03:10:17;;;;;;;4.97;4.10;;;;;;;12.68;100.00;101113.34;5054093;28;20056;-76
2023/05/05 03:12:51;;;;;;;4.45;4.05;;;;;;;12.56;100.00;101094.84;5064151;28;20041;-76
2023/05/05 03:15:18;;;;;;;5.57;4.00;;;;;;;12.63;100.00;101084.53;5073309;28;20059;-76
2023/05/05 03:17:45;;;;;;;6.15;4.43;;;;;;;12.10;100.00;101010.69;5074939;28;20063;-77
2023/05/05 03:20:12;;;;;;;4.95;4.00;;;;;;;12.33;100.00;101023.03;5074854;28;20041;-76
2023/05/05 03:22:38;;;;;;;4.35;3.95;;;;;;;12.27;100.00;101006.13;5069236;28;20098;-75
2023/05/05 03:25:05;;;;;;;8.32;4.00;;;;;;;12.23;100.00;101009.59;5053782;28;20112;-76
2023/05/05 03:27:30;;;;;;;5.63;3.85;;;;;;;12.60;100.00;101035.25;5054105;28;20028;-75
2023/05/05 03:29:56;;;;;;;7.93;4.70;;;;;;;12.43;100.00;101024.53;5054667;28;20047;-77
2023/05/05 03:32:23;;;;;;;7.53;4.47;;;;;;;12.47;100.00;101003.19;5071446;28;20040;-75
2023/05/05 03:34:49;;;;;;;5.70;4.47;;;;;;;12.78;100.00;101062.97;5070557;28;20123;-76
2023/05/05 03:37:14;;;;;;;5.03;4.50;;;;;;;12.65;100.00;101041.13;5070628;28;20086;-73
2023/05/05 03:39:40;;;;;;;6.60;4.80;;;;;;;12.85;100.00;101036.47;5058804;28;20029;-76
2023/05/05 03:42:05;;;;;;;7.72;5.10;;;;;;;12.19;100.00;100964.63;5072540;28;20038;-74
2023/05/05 03:44:31;;;;;;;6.65;4.75;;;;;;;12.58;100.00;101014.88;5072957;28;20044;-75
2023/05/05 03:46:56;;;;;;;5.82;4.30;;;;;;;12.99;100.00;101034.47;5071805;28;20028;-76
2023/05/05 03:49:21;;;;;;;4.95;4.45;;;;;;;12.71;100.00;100975.50;5074047;28;20502;-75
2023/05/05 03:51:47;;;;;;;6.20;4.43;;;;;;;12.68;100.00;100973.00;5073652;28;20024;-75
2023/05/05 03:54:12;;;;;;;6.47;4.60;;;;;;;12.93;100.00;100984.38;5073070;28;20032;-74
2023/05/05 03:56:38;;;;;;;5.18;4.68;;;;;;;13.06;100.00;100987.53;5056918;28;20037;-75
2023/05/05 03:59:04;;;;;;;5.13;4.60;;;;;;;13.48;100.00;101031.72;5056221;28;20024;-76
2023/05/05 04:01:30;;;;;;;5.82;5.05;;;;;;;13.48;100.00;101013.84;5073931;28;20067;-75
2023/05/05 04:03:56;;;;;;;5.18;4.68;;;;;;;13.19;100.00;100954.91;5073837;28;20037;-74
2023/05/05 04:06:22;;;;;;;7.30;5.05;;;;;;;13.20;100.00;100987.22;5073946;28;20036;-75
2023/05/05 04:08:47;;;;;;;6.65;5.20;;;;;;;13.17;100.00;100934.53;5073802;28;20025;-75
2023/05/05 04:11:13;;;;;;;6.18;5.20;;;;;;;13.57;100.00;100990.59;5072031;28;20028;-74
2023/05/05 04:13:38;;;;;;;5.13;4.57;;;;;;;13.58;100.00;100976.97;5072810;28;20028;-74
2023/05/05 04:16:04;;;;;;;6.57;5.68;;;;;;;13.24;100.00;100932.66;5072222;28;20032;-75
2023/05/05 04:18:30;;;;;;;8.20;5.40;;;;;;;13.23;100.00;100913.13;5072949;28;20052;-74
2023/05/05 04:20:55;;;;;;;6.22;5.25;;;;;;;13.40;100.00;100911.84;5072192;28;20032;-74
2023/05/05 04:23:21;;;;;;;7.68;5.78;;;;;;;13.72;100.00;100949.38;5073118;28;20039;-75
2023/05/05 04:25:47;;;;;;;10.68;5.97;;;;;;;13.42;100.00;100871.75;5072987;28;20119;-76
2023/05/05 04:28:12;;;;;;;5.95;5.00;;;;;;;13.36;100.00;100833.59;5071782;28;20111;-75
2023/05/05 04:30:38;;;;;;;8.15;5.05;;;;;;;13.68;100.00;100873.66;5073164;28;20545;-75
2023/05/05 04:33:03;;;;;;;9.30;4.90;;;;;;;13.97;100.00;100909.50;5082464;28;20405;-75
2023/05/05 04:35:29;;;;;;;6.57;5.53;;;;;;;13.48;100.00;100807.75;5087511;28;20028;-75
2023/05/05 04:37:54;;;;;;;7.22;5.20;;;;;;;13.83;100.00;100828.06;5091640;28;20024;-76
2023/05/05 04:40:20;;;;;;;5.95;5.20;;;;;;;14.25;100.00;100873.75;5092991;28;20506;-74
2023/05/05 04:42:45;;;;;;;6.43;5.53;;;;;;;14.07;100.00;100833.38;5080772;28;20348;-74
2023/05/05 04:45:11;;;;;;;7.47;5.30;;;;;;;14.62;100.00;100859.88;5070834;28;20119;-69
2023/05/05 04:47:38;;;;;;;5.32;4.65;;;;;;;14.44;100.00;100821.22;5065477;28;20120;-70
2023/05/05 04:50:04;;;;;;;5.75;4.80;;;;;;;14.94;100.00;100865.72;5051031;28;20036;-70
2023/05/05 04:52:30;;;;;;;8.98;6.05;;;;;;;14.95;100.00;100862.28;5048969;28;20060;-70
2023/05/05 04:54:56;;;;;;;5.35;4.80;;;;;;;14.77;100.00;100784.34;5049653;28;20468;-71
2023/05/05 04:57:21;;;;;;;5.70;4.70;;;;;;;15.27;100.00;100844.16;5065316;28;20146;-71
2023/05/05 04:59:46;;;;;;;7.03;4.80;;;;;;;14.75;100.00;100763.06;5051153;28;20033;-71
2023/05/05 05:02:12;;;;;;;7.20;4.80;;;;;;;14.80;100.00;100771.44;5050846;28;20035;-70
2023/05/05 05:04:37;;;;;;;5.65;4.68;;;;;;;14.97;100.00;100810.16;5050101;28;20118;-70
2023/05/05 05:07:03;;;;;;;5.03;4.40;;;;;;;15.24;100.00;100808.38;5049782;28;20060;-71
2023/05/05 05:09:28;;;;;;;5.55;4.53;;;;;;;15.01;100.00;100745.13;5050223;28;20068;-70
2023/05/05 05:11:58;;;;;;;7.78;5.03;;;;;;;15.52;100.00;100788.66;5065738;28;20500;-71
2023/05/05 05:14:24;;;;;;;7.07;5.03;;;;;;;15.08;100.00;100732.94;5066190;28;20120;-71
2023/05/05 05:16:51;;;;;;;6.70;4.70;;;;;;;14.86;100.00;100683.34;5049464;28;20104;-70
2023/05/05 05:19:16;;;;;;;5.10;4.18;;;;;;;15.11;100.00;100710.63;5051389;28;20033;-70
2023/05/05 05:21:41;;;;;;;6.35;4.60;;;;;;;15.45;100.00;100741.06;5050029;28;20494;-71
2023/05/05 05:24:07;;;;;;;6.90;4.15;;;;;;;14.93;100.00;100690.78;5050450;28;20120;-71
2023/05/05 05:26:32;;;;;;;5.28;4.50;;;;;;;15.15;100.00;100727.53;5066334;28;20029;-70
2023/05/05 05:28:58;;;;;;;5.95;4.55;;;;;;;15.13;100.00;100677.28;5066534;28;20029;-70
2023/05/05 05:31:23;;;;;;;5.13;4.50;;;;;;;15.48;100.00;100723.84;5050793;28;20028;-70
2023/05/05 05:33:48;;;;;;;6.25;4.18;;;;;;;14.69;100.00;100615.66;5049303;28;20032;-70
2023/05/05 05:36:14;;;;;;;5.55;3.75;;;;;;;15.29;100.00;100709.16;5050188;28;20056;-70
2023/05/05 05:38:40;;;;;;;5.38;3.92;;;;;;;15.95;100.00;100718.66;5051450;28;20029;-71
2023/05/05 05:41:08;;;;;;;5.35;4.05;;;;;;;15.28;100.00;100648.53;5050954;28;20029;-71
2023/05/05 05:43:34;;;;;;;4.30;3.88;;;;;;;15.97;100.00;100693.81;5051618;28;20124;-71
2023/05/05 05:45:59;;;;;;;6.13;3.85;;;;;;;15.99;100.00;100712.53;5069633;28;20115;-71
2023/05/05 05:48:27;;;;;;;5.32;3.72;;;;;;;15.82;100.00;100668.75;5069352;28;20177;-71
2023/05/05 05:50:53;;;;;;;5.13;3.90;;;;;;;16.28;100.00;100681.47;5070745;28;20029;-71
2023/05/05 05:53:19;;;;;;;5.03;4.47;;;;;;;16.19;100.00;100694.63;5069124;28;20143;-71
2023/05/05 05:55:47;;;;;;;5.97;4.57;;;;;;;15.82;100.00;100687.53;5069556;28;20513;-71
2023/05/05 05:58:13;;;;;;;7.78;4.90;;;;;;;16.14;100.00;100691.44;5069008;28;20094;-71
2023/05/05 06:00:38;;;;;;;4.93;4.43;;;;;;;15.74;100.00;100640.84;5068627;28;20040;-71
2023/05/05 06:03:04;;;;;;;6.07;4.50;;;;;;;15.99;100.00;100662.06;5069472;28;20090;-71
2023/05/05 06:05:30;;;;;;;5.10;4.07;;;;;;;16.26;100.00;100676.38;5070711;28;20082;-71
2023/05/05 06:07:55;;;;;;;5.28;3.78;;;;;;;15.91;100.00;100615.38;5069723;28;20028;-72
2023/05/05 06:10:21;;;;;;;8.55;3.75;;;;;;;16.24;100.00;100646.56;5070724;28;20028;-70
2023/05/05 06:12:46;;;;;;;6.68;3.90;;;;;;;16.21;100.00;100628.69;5069192;28;20036;-71
2023/05/05 06:15:11;;;;;;;5.88;3.85;;;;;;;16.07;100.00;100582.25;5069945;28;20029;-70
2023/05/05 06:17:37;;;;;;;6.70;3.83;;;;;;;16.18;100.00;100621.16;5069166;28;20584;-71
2023/05/05 06:20:04;;;;;;;6.35;3.88;;;;;;;16.06;100.00;100622.47;5070027;28;20033;-71
2023/05/05 06:22:30;;;;;;;4.82;3.53;;;;;;;17.00;100.00;100673.28;5068314;28;20039;-71
2023/05/05 06:24:55;;;;;;;6.10;3.50;;;;;;;16.76;100.00;100656.34;5070798;28;20028;-71
2023/05/05 06:27:20;;;;;;;6.00;3.38;;;;;;;16.87;100.00;100641.34;5068319;28;20469;-71
2023/05/05 06:29:46;;;;;;;3.22;2.92;;;;;;;16.29;100.00;100593.31;5069767;28;20142;-71
2023/05/05 06:32:12;;;;;;;4.97;3.00;;;;;;;16.82;100.00;100638.13;5070367;28;20024;-71
2023/05/05 06:34:38;;;;;;;5.50;2.90;;;;;;;17.08;100.00;100636.97;5069042;28;20465;-71
2023/05/05 06:37:03;;;;;;;7.75;3.53;;;;;;;17.07;100.00;100635.31;5068559;28;20028;-71
2023/05/05 06:39:29;;;;;;;4.43;2.90;;;;;;;17.22;100.00;100635.47;5068809;28;20127;-71
2023/05/05 06:41:55;;;;;;;3.67;3.05;;;;;;;17.07;100.00;100637.91;5070083;28;20028;-71
2023/05/05 06:44:20;;;;;;;4.82;3.20;;;;;;;17.09;100.00;100626.63;5061129;28;20098;-71
2023/05/05 06:46:46;;;;;;;4.13;3.25;;;;;;;17.37;100.00;100631.41;5051171;28;20484;-71
2023/05/05 06:49:11;;;;;;;4.40;3.28;;;;;;;17.19;100.00;100625.31;5052876;28;20108;-68
2023/05/05 06:51:37;;;;;;;3.80;3.10;;;;;;;17.23;100.00;100585.72;5052897;28;20029;-70
2023/05/05 06:54:02;;;;;;;3.95;3.33;;;;;;;17.68;100.00;100617.97;5069694;28;20470;-70
2023/05/05 06:56:29;;;;;;;3.30;2.80;;;;;;;17.34;100.00;100539.81;5054553;28;20055;-69
2023/05/05 06:58:55;;;;;;;3.67;3.08;;;;;;;18.12;100.00;100614.13;5069675;28;20033;-69
2023/05/05 07:01:20;;;;;;;3.53;3.15;;;;;;;18.80;100.00;100602.97;5053650;28;20036;-70
2023/05/05 07:03:45;;;;;;;6.05;3.10;;;;;;;18.63;100.00;100584.97;5068859;28;20043;-71
2023/05/05 07:06:11;;;;;;;3.95;3.13;;;;;;;19.11;100.00;100487.03;5068871;28;20622;-70
2023/05/05 07:08:36;;;;;;;3.72;2.80;;;;;;;19.56;100.00;100603.19;5069148;28;20037;-71
2023/05/05 07:11:02;;;;;;;3.63;2.50;;;;;;;19.16;100.00;100610.50;5069331;28;20051;-70
2023/05/05 07:13:27;;;;;;;2.50;2.22;;;;;;;19.24;100.00;100556.78;5052481;28;20128;-71
2023/05/05 07:15:53;;;;;;;2.75;2.47;;;;;;;20.39;100.00;100606.19;5053925;28;20112;-71
2023/05/05 07:18:19;;;;;;;5.07;2.38;;;;;;;19.16;100.00;100605.34;5053520;28;20535;-70
2023/05/05 07:20:44;;;;;;;3.58;2.22;;;;;;;18.13;100.00;100493.06;5069005;28;20021;-70
2023/05/05 07:23:10;;;;;;;14.20;3.10;;;;;;;18.28;100.00;100558.41;5053546;28;20522;-71
2023/05/05 07:25:36;;;;;;;3.00;2.53;;;;;;;17.99;100.00;100530.69;5068548;28;20114;-71
2023/05/05 07:28:02;;;;;;;2.67;2.35;;;;;;;17.97;100.00;100517.91;5052223;28;20484;-71
2023/05/05 07:30:27;;;;;;;2.80;2.25;;;;;;;19.70;100.00;100525.84;5068626;28;20053;-71
2023/05/05 07:32:55;;;;;;;3.00;2.50;;;;;;;19.15;100.00;100562.47;5068979;28;20064;-70
2023/05/05 07:35:21;;;;;;;3.38;2.75;;;;;;;19.70;100.00;100579.19;5051739;28;20028;-70
2023/05/05 07:37:47;;;;;;;3.70;2.65;;;;;;;19.46;100.00;100511.72;5052273;28;20127;-70
2023/05/05 07:40:13;;;;;;;4.97;2.67;;;;;;;19.46;100.00;100557.31;5053975;28;20112;-70
2023/05/05 07:42:38;;;;;;;3.88;2.83;;;;;;;18.64;100.00;100519.69;5058323;28;20044;-70
2023/05/05 07:45:05;;;;;;;5.20;2.85;;;;;;;19.07;100.00;100520.78;5071183;28;20097;-74
2023/05/05 07:47:30;;;;;;;3.80;2.80;;;;;;;19.01;100.00;100489.25;5072926;28;20102;-70
2023/05/05 07:49:56;;;;;;;4.78;3.00;;;;;;;20.27;100.00;100565.56;5073482;28;20032;-70
2023/05/05 07:52:22;;;;;;;2.80;2.50;;;;;;;20.55;100.00;100567.34;5072534;28;20051;-70
2023/05/05 07:54:47;;;;;;;4.60;2.60;;;;;;;20.12;100.00;100570.75;5072511;28;20043;-70
2023/05/05 07:57:13;;;;;;;4.10;2.40;;;;;;;19.83;100.00;100552.59;5071605;28;20081;-70
2023/05/05 07:59:42;;;;;;;3.00;2.63;;;;;;;19.89;100.00;100561.72;5070631;28;20032;-71
2023/05/05 08:02:09;;;;;;;4.55;2.85;;;;;;;20.42;100.00;100569.00;5072566;28;20498;-70
2023/05/05 08:04:34;;;;;;;3.88;2.33;;;;;;;19.88;100.00;100523.94;5071343;28;20109;-72
2023/05/05 08:06:59;;;;;;;3.80;2.30;;;;;;;20.92;100.00;100545.28;5072821;28;20481;-70
2023/05/05 08:09:25;;;;;;;3.92;2.63;;;;;;;20.90;100.00;100573.81;5071397;28;20036;-70
2023/05/05 08:11:50;;;;;;;5.47;3.30;;;;;;;21.13;100.00;100564.69;5071111;28;20035;-71
2023/05/05 08:14:16;;;;;;;4.00;2.60;;;;;;;21.28;100.00;100576.66;5070866;28;20033;-71
2023/05/05 08:16:41;;;;;;;3.53;2.38;;;;;;;20.67;100.00;100561.44;5071929;28;20086;-71
2023/05/05 08:19:06;;;;;;;5.35;2.47;;;;;;;21.02;100.00;100614.47;5070906;28;20124;-72
2023/05/05 08:21:32;;;;;;;4.25;2.30;;;;;;;19.83;100.00;100600.78;5070305;28;20028;-71
2023/05/05 08:23:57;;;;;;;2.60;2.13;;;;;;;19.95;100.00;100563.97;5071013;28;20082;-70
2023/05/05 08:26:23;;;;;;;3.33;2.40;;;;;;;20.85;100.00;100575.84;5072485;28;20024;-70
2023/05/05 08:28:48;;;;;;;3.33;2.65;;;;;;;21.28;100.00;100593.00;5072079;28;20033;-70
2023/05/05 08:31:14;;;;;;;2.90;2.35;;;;;;;21.13;100.00;100598.31;5070465;28;20028;-70
2023/05/05 08:33:40;;;;;;;2.90;2.50;;;;;;;20.95;100.00;100566.63;5071174;28;20040;-70
2023/05/05 08:36:07;;;;;;;4.82;2.35;;;;;;;21.08;100.00;100616.69;5070130;28;20036;-73
2023/05/05 08:38:33;;;;;;;3.97;2.70;;;;;;;20.50;100.00;100570.19;5072196;28;20605;-70
2023/05/05 08:40:59;;;;;;;3.60;2.60;;;;;;;20.23;100.00;100620.06;5071212;28;20059;-71
2023/05/05 08:43:25;;;;;;;3.13;2.45;;;;;;;20.39;100.00;100624.25;5072433;28;20095;-71
2023/05/05 08:45:50;;;;;;;3.60;2.55;;;;;;;20.40;100.00;100612.19;5070761;28;20052;-71
2023/05/05 08:48:22;;;;;;;4.25;2.63;;;;;;;20.73;100.00;100643.78;5071866;28;20028;-71
2023/05/05 08:50:53;;;;;;;4.03;2.58;;;;;;;21.35;100.00;100728.81;5071755;28;20036;-71
2023/05/05 08:53:34;;;;;;;3.47;2.70;;;;;;;21.12;100.00;100744.91;5071741;28;20032;-72
2023/05/05 08:56:02;;;;;;;2.97;2.60;;;;;;;20.91;100.00;100738.38;5070694;28;20047;-71
2023/05/05 08:58:30;;;;;;;2.80;2.60;;;;;;;21.31;100.00;100792.03;5070566;28;20081;-71
2023/05/05 09:00:56;;;;;;;4.80;2.63;;;;;;;22.33;100.00;100821.13;5070190;28;20518;-71
2023/05/05 09:03:22;;;;;;;3.05;2.75;;;;;;;22.62;100.00;100865.97;5071279;28;20060;-71
2023/05/05 09:05:47;;;;;;;3.45;2.65;;;;;;;22.02;100.00;100896.50;5070375;28;20434;-73
2023/05/05 09:08:13;;;;;;;3.00;2.60;;;;;;;20.87;100.00;100893.75;5071925;28;20032;-73
2023/05/05 09:10:40;;;;;;;3.25;2.95;;;;;;;20.47;100.00;100839.09;5070989;28;20032;-72
2023/05/05 09:13:06;;;;;;;7.10;3.70;;;;;;;21.94;100.00;100882.34;5070269;28;20033;-71
2023/05/05 09:15:32;;;;;;;2.92;2.70;;;;;;;20.65;100.00;100884.63;5071417;28;20036;-72
2023/05/05 09:17:58;;;;;;;4.22;3.10;;;;;;;22.50;100.00;100951.47;5071832;28;20056;-72
2023/05/05 09:20:31;;;;;;;2.90;2.60;;;;;;;21.81;100.00;100988.41;5071863;28;20028;-71
2023/05/05 09:22:57;;;;;;;3.50;3.00;;;;;;;22.49;100.00;101033.56;5071827;28;20039;-72
2023/05/05 09:25:22;;;;;;;4.18;3.03;;;;;;;22.02;100.00;101058.88;5071415;28;20029;-74
2023/05/05 09:27:48;;;;;;;3.13;2.80;;;;;;;22.22;100.00;101059.34;5071476;28;20024;-71
2023/05/05 09:30:16;;;;;;;3.42;2.42;;;;;;;21.72;100.00;101086.47;4716340;28;10000481;-73
2023/05/05 09:32:44;;;;;;;2.70;2.10;;;;;;;22.13;100.00;101057.31;5069095;28;20460;-71
2023/05/05 09:35:09;;;;;;;4.50;2.50;;;;;;;21.71;100.00;101100.34;5069540;28;20024;-73
2023/05/05 09:37:36;;;;;;;3.15;2.80;;;;;;;22.33;100.00;101181.41;5067853;28;20062;-72
2023/05/05 09:40:01;;;;;;;5.13;2.55;;;;;;;21.05;100.00;101179.88;5069375;28;20462;-72
2023/05/05 09:42:27;;;;;;;4.10;2.70;;;;;;;21.98;100.00;101146.28;5067435;28;20072;-71
2023/05/05 09:44:53;;;;;;;6.28;3.40;;;;;;;21.27;100.00;101167.47;5069139;28;20036;-69
2023/05/05 09:47:19;;;;;;;4.43;3.45;;;;;;;20.85;100.00;101107.63;5069771;28;20064;-70
2023/05/05 09:49:44;;;;;;;3.85;2.60;;;;;;;21.50;100.00;101177.44;5071196;28;20078;-70
2023/05/05 09:52:14;;;;;;;4.72;3.35;;;;;;;21.74;100.00;101208.94;5071198;28;20028;-70
2023/05/05 09:54:41;;;;;;;8.35;5.05;;;;;;;21.23;100.00;101153.03;5070372;28;20764;-69
2023/05/05 09:57:07;;;;;;;2.78;2.58;;;;;;;20.85;100.00;101205.88;5070840;28;20028;-70
2023/05/05 09:59:33;;;;;;;4.82;2.90;;;;;;;20.95;100.00;101204.50;5069038;28;20044;-70
2023/05/05 10:02:12;;;;;;;3.92;2.72;;;;;;;21.88;100.00;101228.03;5070783;28;20025;-69
2023/05/05 10:04:37;;;;;;;2.70;2.50;;;;;;;22.05;100.00;101309.97;5070594;28;20028;-69
2023/05/05 10:07:03;;;;;;;7.80;4.00;;;;;;;22.33;100.00;101342.09;5069615;28;20735;-70
2023/05/05 10:09:30;;;;;;;4.72;2.40;;;;;;;21.84;100.00;101365.53;5069199;28;20119;-69
2023/05/05 10:11:58;;;;;;;3.10;2.40;;;;;;;20.67;100.00;101305.88;5070131;28;20595;-70
2023/05/05 10:14:25;;;;;;;3.08;2.75;;;;;;;21.35;100.00;101390.47;5070945;28;20036;-70
2023/05/05 10:16:52;;;;;;;2.72;2.53;;;;;;;21.83;100.00;101366.47;5069089;28;20082;-70
2023/05/05 10:19:22;;;;;;;2.53;2.33;;;;;;;22.02;100.00;101431.94;5070179;28;20056;-70
2023/05/05 10:21:52;;;;;;;2.85;2.60;;;;;;;21.41;100.00;101387.56;5070436;28;20032;-70
2023/05/05 10:24:24;;;;;;;3.30;2.20;;;;;;;20.98;100.00;101427.59;5068757;28;20036;-70
2023/05/05 10:26:51;;;;;;;2.97;2.40;;;;;;;20.90;100.00;101372.00;5068996;28;20024;-70
2023/05/05 10:29:31;;;;;;;3.97;2.60;;;;;;;22.38;100.00;101480.06;5068998;28;20119;-70
2023/05/05 10:32:04;;;;;;;4.70;2.92;;;;;;;22.64;100.00;101512.41;5068725;28;20086;-70
2023/05/05 10:34:39;;;;;;;3.80;2.40;;;;;;;22.48;100.00;101586.75;5069390;28;20031;-69
2023/05/05 10:37:05;;;;;;;2.58;2.35;;;;;;;22.66;100.00;101629.06;5070405;28;20422;-69
2023/05/05 10:39:33;;;;;;;4.30;2.58;;;;;;;21.63;100.00;101788.66;5069031;28;20032;-71
2023/05/05 10:42:02;;;;;;;5.20;2.53;;;;;;;21.54;100.00;102015.16;5069090;28;20036;-70
2023/05/05 10:44:32;;;;;;;4.95;2.80;;;;;;;21.26;100.00;101994.72;5068607;28;20048;-70
2023/05/05 10:47:05;;;;;;;5.32;2.40;;;;;;;21.86;100.00;102035.44;5070434;28;20067;-70
2023/05/05 10:49:34;;;;;;;2.63;2.42;;;;;;;21.61;100.00;102114.97;5068658;28;20024;-69
2023/05/05 10:52:02;;;;;;;2.92;2.30;;;;;;;23.42;100.00;102217.97;5070143;28;20035;-69
2023/05/05 10:54:36;;;;;;;3.95;2.40;;;;;;;21.92;100.00;102202.75;5068913;28;20556;-70
2023/05/05 10:57:04;;;;;;;4.43;2.60;;;;;;;21.34;100.00;102193.72;5068421;28;20067;-71
2023/05/05 10:59:35;;;;;;;2.53;2.33;;;;;;;21.50;100.00;102241.44;5071002;28;20021;-69
2023/05/05 11:02:17;;;;;;;4.25;2.95;;;;;;;21.33;100.00;102210.97;5068836;28;20032;-69
2023/05/05 11:04:42;;;;;;;;;;;;;;;21.55;100.00;102281.78;5069357;28;20445;-69
2023/05/05 11:07:07;;;;;;;4.72;2.85;;;;;;;21.20;100.00;102296.91;5068386;28;19965;-70
2023/05/05 11:09:40;;;;;;;3.40;2.55;;;;;;;21.09;100.00;102306.78;5070406;28;20064;-70
2023/05/05 11:12:07;;;;;;;4.00;2.88;;;;;;;20.51;100.00;102287.97;5070466;28;20884;-70
2023/05/05 11:14:33;;;;;;;4.22;2.67;;;;;;;20.25;100.00;102297.44;5068447;28;20124;-70
2023/05/05 11:16:59;;;;;;;2.75;2.50;;;;;;;20.07;100.00;102313.44;5068452;28;20051;-70
2023/05/05 11:19:42;;;;;;;3.60;2.20;;;;;;;20.40;100.00;102414.09;5069311;28;20122;-70